Time;durP1;ratioP1;P1;durP2;ratioP2;P2;SDS_P1;SDS_P2;PMS_P1;PMS_P2;Temp;Humidity;BMP_temperature;BMP_pressure;BME280_temperature;BME280_humidity;BME280_pressure;Samples;Min_cycle;Max_cycle;Signal;HPM_P1;HPM_P2
2022/05/01 00:01:11;;;;;;;14.00;4.28;;;;;;;4.17;47.29;100157.53;4958869;28;20065;-65
2022/05/01 00:03:42;;;;;;;13.32;4.43;;;;;;;4.14;47.35;100152.59;4976084;28;20046;-65
2022/05/01 00:06:11;;;;;;;10.43;4.25;;;;;;;4.14;47.39;100158.09;4976466;28;20051;-66
2022/05/01 00:08:42;;;;;;;16.60;4.90;;;;;;;4.14;47.67;100158.09;4975328;28;20061;-66
2022/05/01 00:11:13;;;;;;;9.52;4.20;;;;;;;4.14;47.62;100162.78;4976087;28;20058;-66
2022/05/01 00:13:41;;;;;;;11.82;4.53;;;;;;;4.14;47.24;100166.34;4975145;28;20088;-65
2022/05/01 00:16:08;;;;;;;12.25;4.13;;;;;;;4.13;47.36;100164.72;4976223;28;20062;-65
2022/05/01 00:18:37;;;;;;;14.10;4.28;;;;;;;4.15;47.41;100165.28;4974991;28;20058;-64
2022/05/01 00:21:10;;;;;;;9.93;4.13;;;;;;;4.15;47.27;100169.94;4976476;28;20059;-64
2022/05/01 00:23:38;;;;;;;9.85;4.43;;;;;;;4.15;47.46;100170.78;4974527;28;20457;-64
2022/05/01 00:26:07;;;;;;;9.25;3.90;;;;;;;4.10;47.70;100165.25;4976298;28;20049;-65
2022/05/01 00:28:39;;;;;;;12.93;4.63;;;;;;;4.13;47.35;100172.97;4994329;23;20575;-65
2022/05/01 00:31:09;;;;;;;11.68;4.03;;;;;;;4.10;47.63;100173.53;4994218;28;20077;-65
2022/05/01 00:36:26;;;;;;;8.13;3.92;;;;;;;4.11;47.59;100179.88;4994063;28;20080;-66
2022/05/01 00:39:01;;;;;;;11.23;3.97;;;;;;;4.08;47.39;100170.22;4994933;28;20054;-64
2022/05/01 00:41:30;;;;;;;12.90;3.85;;;;;;;4.08;47.71;100175.72;5009755;28;20200;-65
2022/05/01 00:44:06;;;;;;;9.25;3.70;;;;;;;4.06;47.60;100171.59;4994869;28;20429;-66
2022/05/01 00:46:39;;;;;;;13.45;4.50;;;;;;;4.02;47.41;100168.56;5006577;28;20055;-65
2022/05/01 00:49:10;;;;;;;10.15;3.85;;;;;;;4.02;47.49;100168.56;4958237;28;20051;-66
2022/05/01 00:51:46;;;;;;;13.35;6.18;;;;;;;4.00;47.73;100173.53;4975807;28;20109;-65
2022/05/01 00:54:17;;;;;;;6.05;3.17;;;;;;;4.01;47.33;100179.84;4973865;28;20049;-65
2022/05/01 00:56:48;;;;;;;7.80;3.20;;;;;;;4.04;47.10;100176.53;4974306;28;20047;-65
2022/05/01 00:59:16;;;;;;;;;;;;;;;4.00;47.18;100172.69;4976069;28;20151;-64
2022/05/01 01:01:46;;;;;;;5.82;2.92;;;;;;;4.01;47.27;100172.41;4975458;28;19930;-64
2022/05/01 01:04:14;;;;;;;6.07;3.22;;;;;;;3.99;47.10;100177.38;4975094;28;20050;-65
2022/05/01 01:06:45;;;;;;;13.13;3.90;;;;;;;4.01;47.20;100175.16;4975227;28;20059;-65
2022/05/01 01:09:17;;;;;;;8.48;3.45;;;;;;;3.93;47.25;100167.44;4994823;28;20417;-65
2022/05/01 01:14:33;;;;;;;7.03;3.25;;;;;;;3.98;47.26;100181.22;4994560;28;20054;-65
2022/05/01 01:17:10;;;;;;;6.72;2.70;;;;;;;3.97;47.11;100170.50;4994616;28;20051;-64
2022/05/01 01:19:40;;;;;;;6.88;3.33;;;;;;;3.95;47.32;100169.94;4993254;28;20050;-64
2022/05/01 01:22:09;;;;;;;6.10;2.92;;;;;;;3.98;47.20;100169.38;4976996;28;20053;-65
2022/05/01 01:24:40;;;;;;;7.60;2.80;;;;;;;3.96;46.85;100172.41;4994086;28;20469;-65
2022/05/01 01:27:08;;;;;;;6.65;2.90;;;;;;;3.93;46.99;100169.41;4994397;28;20050;-65
2022/05/01 01:32:32;;;;;;;10.10;3.10;;;;;;;3.92;46.91;100171.31;4994191;28;20069;-64
2022/05/01 01:35:02;;;;;;;8.07;2.90;;;;;;;3.96;46.79;100171.59;4992978;28;20113;-65
2022/05/01 01:37:37;;;;;;;7.13;2.45;;;;;;;3.96;46.71;100171.59;4994124;28;20049;-64
2022/05/01 01:40:08;;;;;;;10.90;3.83;;;;;;;3.98;46.58;100170.22;4992845;28;20050;-64
2022/05/01 01:42:47;;;;;;;13.63;3.10;;;;;;;4.05;46.66;100169.94;4992963;28;20050;-65
2022/05/01 01:45:14;;;;;;;5.18;3.00;;;;;;;4.01;46.69;100168.81;4993858;28;20519;-65
2022/05/01 01:47:43;;;;;;;6.63;2.97;;;;;;;3.97;46.62;100171.31;4993757;28;20050;-65
2022/05/01 01:50:13;;;;;;;6.75;2.63;;;;;;;3.98;46.64;100170.22;4993881;28;20141;-66
2022/05/01 01:52:46;;;;;;;6.15;2.70;;;;;;;3.97;46.52;100168.56;4993701;28;20054;-65
2022/05/01 01:55:15;;;;;;;6.35;2.65;;;;;;;4.00;46.66;100173.53;5017763;23;20458;-64
2022/05/01 01:57:45;;;;;;;9.25;3.00;;;;;;;4.02;46.60;100167.75;4996102;28;20050;-66
2022/05/01 02:00:17;;;;;;;6.43;2.55;;;;;;;4.05;46.44;100175.47;5012034;28;20063;-66
2022/05/01 02:02:45;;;;;;;4.97;2.45;;;;;;;4.05;46.47;100176.25;5013479;28;20058;-65
2022/05/01 02:05:14;;;;;;;6.83;2.87;;;;;;;4.03;46.41;100167.47;5011718;28;20472;-66
2022/05/01 02:07:42;;;;;;;12.13;2.92;;;;;;;4.01;46.44;100174.34;5013226;28;20405;-65
2022/05/01 02:10:12;;;;;;;8.35;2.53;;;;;;;4.06;46.29;100177.09;5012969;28;20053;-65
2022/05/01 02:12:40;;;;;;;9.25;2.75;;;;;;;4.05;46.23;100176.25;5011928;28;20428;-65
2022/05/01 02:15:20;;;;;;;9.38;2.60;;;;;;;4.09;46.30;100173.78;5013200;28;20096;-65
2022/05/01 02:17:51;;;;;;;7.00;2.70;;;;;;;3.99;46.09;100162.78;5012948;28;20096;-65
2022/05/01 02:20:19;;;;;;;9.88;2.95;;;;;;;4.04;45.98;100163.63;5012926;28;20081;-64
2022/05/01 02:22:46;;;;;;;3.67;2.20;;;;;;;4.11;46.24;100175.16;5013235;28;20132;-65
2022/05/01 02:25:16;;;;;;;;;;;;;;;4.12;46.16;100179.59;5012109;28;20056;-64
2022/05/01 02:27:43;;;;;;;5.85;3.00;;;;;;;4.11;46.03;100175.16;5013477;28;20032;-65
2022/05/01 02:30:11;;;;;;;7.63;2.22;;;;;;;4.19;45.61;100176.53;4978817;28;20484;-65
2022/05/01 02:32:39;;;;;;;7.95;2.53;;;;;;;4.19;45.26;100171.88;4993459;28;20561;-65
2022/05/01 02:35:08;;;;;;;9.90;3.53;;;;;;;4.18;45.54;100170.22;4991803;28;20080;-64
2022/05/01 02:37:36;;;;;;;5.70;2.40;;;;;;;4.26;45.75;100172.41;4995627;28;20050;-70
2022/05/01 02:40:06;;;;;;;7.65;2.53;;;;;;;4.12;45.33;100154.81;4995966;28;20073;-70
2022/05/01 02:42:34;;;;;;;8.10;2.85;;;;;;;4.30;45.52;100173.53;5012554;28;20054;-70
2022/05/01 02:45:06;;;;;;;4.88;2.25;;;;;;;4.32;45.62;100176.81;4995679;28;20046;-71
2022/05/01 02:47:34;;;;;;;7.10;2.65;;;;;;;4.37;45.57;100187.84;4979821;28;20121;-71
2022/05/01 02:50:01;;;;;;;5.60;2.67;;;;;;;4.41;45.22;100182.59;4997186;28;20149;-71
2022/05/01 02:52:29;;;;;;;8.10;2.65;;;;;;;4.44;45.52;100182.84;4997052;28;20141;-71
2022/05/01 02:54:56;;;;;;;6.75;2.80;;;;;;;4.52;45.69;100186.97;4995533;28;20054;-71
2022/05/01 02:57:24;;;;;;;5.65;3.15;;;;;;;4.59;45.32;100171.81;4997198;28;20053;-71
2022/05/01 02:59:51;;;;;;;9.60;2.75;;;;;;;4.66;45.15;100169.63;4995842;28;20076;-70
2022/05/01 03:02:22;;;;;;;7.25;2.28;;;;;;;4.75;44.45;100165.19;5011743;28;20444;-71
2022/05/01 03:04:52;;;;;;;4.88;2.53;;;;;;;4.91;44.27;100180.56;4996094;28;20054;-71
2022/05/01 03:07:19;;;;;;;4.93;2.27;;;;;;;4.97;44.32;100179.44;5000925;28;20496;-71
2022/05/01 03:09:46;;;;;;;4.65;2.22;;;;;;;5.09;43.60;100176.34;5016420;28;20323;-71
2022/05/01 03:12:14;;;;;;;5.75;2.50;;;;;;;5.19;43.36;100177.19;5016797;28;20485;-71
2022/05/01 03:14:42;;;;;;;3.92;2.40;;;;;;;5.40;43.45;100175.13;5015135;28;20068;-72
2022/05/01 03:17:10;;;;;;;5.65;2.25;;;;;;;5.72;42.92;100169.16;5016682;28;20042;-71
2022/05/01 03:22:26;;;;;;;3.75;1.90;;;;;;;6.25;41.14;100182.06;5016418;28;20157;-71
2022/05/01 03:24:54;;;;;;;6.75;2.78;;;;;;;6.46;41.78;100180.78;5015230;28;20108;-71
2022/05/01 03:27:23;;;;;;;5.43;2.67;;;;;;;6.65;40.49;100178.91;5016394;28;20061;-71
2022/05/01 03:30:16;;;;;;;8.13;2.58;;;;;;;6.80;40.83;100182.38;5014968;28;20464;-71
2022/05/01 03:32:45;;;;;;;;;;;;;;;6.93;39.86;100186.38;5016491;28;20046;-72
2022/05/01 03:35:15;;;;;;;4.93;2.10;;;;;;;7.03;39.80;100183.50;5016081;28;19929;-71
2022/05/01 03:37:44;;;;;;;7.30;2.00;;;;;;;7.08;39.71;100183.44;5016150;28;20532;-72
2022/05/01 03:40:14;;;;;;;7.82;2.85;;;;;;;7.12;39.56;100193.63;5015951;28;20569;-71
2022/05/01 03:42:42;;;;;;;7.13;2.33;;;;;;;7.19;39.67;100190.50;5016079;28;20145;-71
2022/05/01 03:45:10;;;;;;;14.20;3.05;;;;;;;7.26;39.03;100185.44;5015960;28;20046;-71
2022/05/01 03:47:37;;;;;;;5.35;2.28;;;;;;;7.33;39.02;100183.13;5015452;28;20417;-71
2022/05/01 03:50:09;;;;;;;8.43;2.85;;;;;;;7.43;38.96;100191.28;5014578;28;20140;-70
2022/05/01 03:52:38;;;;;;;8.63;2.92;;;;;;;7.51;39.01;100182.34;5014774;28;20054;-71
2022/05/01 03:55:07;;;;;;;7.47;2.50;;;;;;;7.58;38.58;100179.22;5016036;28;20061;-71
2022/05/01 03:57:37;;;;;;;7.85;2.88;;;;;;;7.74;38.76;100191.72;4998437;28;20096;-71
2022/05/01 04:00:10;;;;;;;7.15;3.30;;;;;;;7.84;37.90;100184.09;5014349;28;20108;-71
2022/05/01 04:02:45;;;;;;;8.38;2.92;;;;;;;7.81;37.69;100165.31;5014491;28;20081;-71
2022/05/01 04:05:15;;;;;;;7.50;2.47;;;;;;;8.08;37.81;100186.78;4997938;28;20050;-71
2022/05/01 04:07:43;;;;;;;5.78;2.33;;;;;;;8.10;37.74;100174.28;5015276;28;20045;-71
2022/05/01 04:10:12;;;;;;;11.52;3.15;;;;;;;8.19;37.40;100175.25;5015101;28;20061;-72
2022/05/01 04:12:42;;;;;;;7.90;2.88;;;;;;;8.26;36.68;100181.25;5015345;28;20136;-72
2022/05/01 04:15:11;;;;;;;;;;;;;;;8.29;36.57;100175.09;5015567;28;20077;-71
2022/05/01 04:17:41;;;;;;;9.35;2.42;;;;;;;8.41;36.54;100181.00;5015550;28;19930;-71
2022/05/01 04:20:13;;;;;;;7.78;2.40;;;;;;;8.38;36.52;100176.06;5015085;28;20066;-71
2022/05/01 04:22:44;;;;;;;7.07;2.92;;;;;;;8.49;35.69;100176.69;5015143;28;20042;-71
2022/05/01 04:25:18;;;;;;;6.85;2.38;;;;;;;8.63;35.63;100183.94;5014895;28;20053;-71
2022/05/01 04:27:51;;;;;;;7.10;2.42;;;;;;;8.63;35.32;100183.13;5015127;28;20457;-71
2022/05/01 04:30:20;;;;;;;8.38;2.47;;;;;;;8.63;35.05;100181.19;5015330;28;20544;-70
2022/05/01 04:32:53;;;;;;;4.43;2.03;;;;;;;8.71;35.10;100180.47;4997432;28;20100;-71
2022/05/01 04:35:43;;;;;;;5.35;2.20;;;;;;;8.82;35.18;100181.09;5014754;28;20335;-71
2022/05/01 04:38:18;;;;;;;9.70;2.60;;;;;;;8.92;34.83;100181.72;5013648;28;20045;-70
2022/05/01 04:40:48;;;;;;;5.43;2.50;;;;;;;8.93;34.85;100183.38;5014799;28;20050;-71
2022/05/01 04:43:17;;;;;;;4.38;1.98;;;;;;;8.89;34.30;100184.31;5014962;28;20054;-71
2022/05/01 04:45:46;;;;;;;6.50;2.17;;;;;;;8.98;34.21;100174.97;5014606;28;20050;-71
2022/05/01 04:48:15;;;;;;;5.85;2.63;;;;;;;9.03;34.23;100169.31;5013506;28;20057;-71
2022/05/01 04:50:42;;;;;;;4.63;1.80;;;;;;;9.28;33.97;100181.88;5013114;28;20054;-72
2022/05/01 04:53:12;;;;;;;7.38;2.10;;;;;;;9.25;33.94;100172.22;5014399;28;20061;-69
2022/05/01 04:55:40;;;;;;;4.68;1.67;;;;;;;9.27;33.63;100177.47;5014899;28;20085;-71
2022/05/01 04:58:09;;;;;;;5.03;1.70;;;;;;;9.33;33.59;100176.22;5014666;28;20129;-70
2022/05/01 05:00:37;;;;;;;6.10;2.10;;;;;;;9.46;33.06;100178.16;5013620;28;20077;-70
2022/05/01 05:03:04;;;;;;;9.68;1.95;;;;;;;9.58;32.78;100172.91;5014336;28;20061;-71
2022/05/01 05:05:34;;;;;;;5.82;1.92;;;;;;;9.62;32.61;100173.91;5014295;28;20537;-71
2022/05/01 05:10:48;;;;;;;5.00;1.58;;;;;;;9.81;32.45;100171.00;5014191;28;20505;-72
2022/05/01 05:13:27;;;;;;;7.47;1.65;;;;;;;9.83;32.61;100179.84;5014295;28;20133;-70
2022/05/01 05:15:59;;;;;;;3.47;1.67;;;;;;;9.98;32.14;100171.16;5014129;28;20080;-70
2022/05/01 05:18:27;;;;;;;2.42;1.13;;;;;;;10.13;32.06;100179.19;5013891;28;20046;-71
2022/05/01 05:20:55;;;;;;;4.07;1.67;;;;;;;10.31;31.96;100175.41;5013990;28;20057;-71
2022/05/01 05:23:22;;;;;;;3.25;1.50;;;;;;;10.40;31.04;100171.56;5013873;28;20064;-71
2022/05/01 05:25:50;;;;;;;3.33;1.10;;;;;;;10.48;30.89;100169.97;5013874;28;20050;-71
2022/05/01 05:28:18;;;;;;;2.45;1.35;;;;;;;10.68;30.70;100169.44;5013834;28;20556;-72
2022/05/01 05:30:47;;;;;;;4.32;1.30;;;;;;;10.89;30.83;100176.09;5013930;28;20567;-71
2022/05/01 05:33:13;;;;;;;3.65;1.67;;;;;;;11.11;30.00;100173.28;5013737;28;20510;-72
2022/05/01 05:35:40;;;;;;;5.85;1.45;;;;;;;11.42;29.98;100174.03;5014410;28;20388;-72
2022/05/01 05:38:07;;;;;;;21.52;6.70;;;;;;;11.67;29.12;100169.72;5013567;28;20523;-72
2022/05/01 05:40:34;;;;;;;3.08;1.73;;;;;;;12.07;29.53;100162.88;5013713;28;20052;-72
2022/05/01 05:43:01;;;;;;;5.63;1.30;;;;;;;12.66;28.56;100162.84;5014575;28;20140;-70
2022/05/01 05:45:28;;;;;;;2.97;1.60;;;;;;;13.48;27.43;100158.81;5012046;28;20045;-70
2022/05/01 05:47:55;;;;;;;3.40;1.20;;;;;;;14.75;25.71;100159.81;5013520;28;20412;-72
2022/05/01 05:50:22;;;;;;;2.70;1.40;;;;;;;17.41;22.37;100153.28;5013249;28;20053;-71
2022/05/01 05:52:49;;;;;;;3.40;1.80;;;;;;;20.83;18.90;100145.31;5013492;28;20144;-72
2022/05/01 05:55:16;;;;;;;4.50;1.88;;;;;;;22.43;17.35;100140.63;5012931;28;20057;-72
2022/05/01 05:57:43;;;;;;;3.78;1.70;;;;;;;21.11;18.10;100142.81;5013406;28;20080;-71
2022/05/01 06:00:10;;;;;;;2.75;1.40;;;;;;;19.73;18.96;100147.78;5013086;28;20088;-71
2022/05/01 06:02:37;;;;;;;5.15;2.25;;;;;;;19.53;18.92;100151.06;5013015;28;20049;-72
2022/05/01 06:05:05;;;;;;;3.85;1.60;;;;;;;20.24;18.23;100142.53;5013541;28;20092;-72
2022/05/01 06:07:32;;;;;;;2.15;1.40;;;;;;;20.41;17.97;100146.78;5013525;28;20050;-71
2022/05/01 06:09:59;;;;;;;2.72;1.33;;;;;;;21.17;17.37;100140.44;5013184;28;20050;-72
2022/05/01 06:12:28;;;;;;;2.90;1.38;;;;;;;20.52;17.88;100144.91;5012602;28;20058;-71
2022/05/01 06:14:55;;;;;;;6.18;1.83;;;;;;;21.03;17.59;100143.13;5013093;28;20584;-71
2022/05/01 06:17:22;;;;;;;3.55;1.50;;;;;;;22.40;16.38;100147.06;5011704;28;20073;-72
2022/05/01 06:19:49;;;;;;;4.13;1.77;;;;;;;23.44;15.76;100145.06;5009132;28;20074;-72
2022/05/01 06:22:16;;;;;;;4.82;1.58;;;;;;;24.17;14.88;100144.22;4993903;28;20050;-72
2022/05/01 06:24:42;;;;;;;2.28;1.25;;;;;;;22.96;15.79;100136.81;4993305;28;20050;-73
2022/05/01 06:27:09;;;;;;;3.10;1.55;;;;;;;22.02;16.42;100125.81;4993385;28;20064;-72
2022/05/01 06:29:36;;;;;;;3.08;1.58;;;;;;;23.13;15.43;100136.06;4993086;28;20129;-74
2022/05/01 06:32:04;;;;;;;2.75;1.42;;;;;;;26.07;13.79;100129.72;5005849;28;20085;-72
2022/05/01 06:34:32;;;;;;;2.63;1.40;;;;;;;28.55;12.21;100133.00;5028053;28;20413;-73
2022/05/01 06:36:59;;;;;;;4.50;1.85;;;;;;;29.92;11.34;100126.97;5012831;28;20045;-72
2022/05/01 06:39:28;;;;;;;5.35;1.60;;;;;;;30.24;10.68;100126.16;5012887;28;20060;-72
2022/05/01 06:41:55;;;;;;;3.13;1.60;;;;;;;30.91;10.57;100133.69;5012914;28;20188;-73
2022/05/01 06:44:22;;;;;;;3.90;2.00;;;;;;;30.20;10.36;100123.41;5012713;28;20084;-74
2022/05/01 06:46:49;;;;;;;2.58;1.67;;;;;;;29.04;11.32;100126.19;5012852;28;20408;-72
2022/05/01 06:49:16;;;;;;;3.13;1.75;;;;;;;28.48;11.36;100125.34;5012756;28;20076;-73
2022/05/01 06:51:44;;;;;;;4.95;2.22;;;;;;;28.62;11.22;100120.59;5012806;28;20054;-72
2022/05/01 06:54:10;;;;;;;3.05;1.40;;;;;;;29.47;10.61;100115.41;5012297;28;20066;-73
2022/05/01 06:56:41;;;;;;;3.95;1.70;;;;;;;30.37;10.17;100115.56;5012864;28;20053;-73
2022/05/01 06:59:08;;;;;;;3.40;1.70;;;;;;;30.04;10.19;100115.59;5012531;28;20053;-73
2022/05/01 07:01:35;;;;;;;3.35;1.63;;;;;;;30.45;10.24;100105.47;5012692;28;20050;-73
2022/05/01 07:04:03;;;;;;;3.78;1.65;;;;;;;30.89;9.78;100108.28;5012571;28;20153;-66
2022/05/01 07:06:30;;;;;;;7.53;2.42;;;;;;;30.64;9.75;100101.63;5012798;28;20149;-66
2022/05/01 07:08:57;;;;;;;3.90;1.65;;;;;;;30.79;9.68;100091.38;5012608;28;20145;-66
2022/05/01 07:11:24;;;;;;;3.10;1.58;;;;;;;30.74;9.88;100101.34;5012632;28;20046;-66
2022/05/01 07:13:51;;;;;;;2.42;1.20;;;;;;;31.17;9.43;100095.09;5012775;28;20069;-66
2022/05/01 07:16:20;;;;;;;3.35;1.58;;;;;;;30.68;9.49;100090.84;5012180;28;20056;-66
2022/05/01 07:18:47;;;;;;;3.45;1.30;;;;;;;33.82;8.07;100099.28;5012732;28;20497;-67
2022/05/01 07:21:14;;;;;;;2.47;1.40;;;;;;;36.38;6.96;100087.75;5012525;28;20132;-66
2022/05/01 07:23:41;;;;;;;3.60;1.33;;;;;;;32.31;8.71;100085.88;5015422;28;20092;-67
2022/05/01 07:26:08;;;;;;;4.43;1.38;;;;;;;31.32;8.84;100096.28;5015930;28;20056;-67
2022/05/01 07:28:35;;;;;;;3.25;1.27;;;;;;;27.16;10.90;100100.66;5015692;28;20060;-66
2022/05/01 07:31:03;;;;;;;2.28;1.50;;;;;;;27.91;10.96;100098.22;5015974;28;20054;-66
2022/05/01 07:33:30;;;;;;;2.28;1.30;;;;;;;32.22;8.41;100091.53;5015875;28;20136;-67
2022/05/01 07:36:01;;;;;;;2.10;1.30;;;;;;;32.15;8.50;100091.81;5014430;28;20172;-66
2022/05/01 07:38:28;;;;;;;3.25;1.42;;;;;;;28.23;10.64;100092.72;5015932;28;20058;-66
2022/05/01 07:40:55;;;;;;;2.58;1.50;;;;;;;24.66;12.48;100098.59;5014436;28;20524;-67
2022/05/01 07:43:22;;;;;;;4.60;2.25;;;;;;;25.64;12.19;100086.50;5016601;28;20076;-66
2022/05/01 07:45:49;;;;;;;2.67;1.50;;;;;;;28.92;10.11;100088.84;5015834;28;20073;-66
2022/05/01 07:48:20;;;;;;;2.80;1.52;;;;;;;32.84;8.26;100084.69;4998265;28;20053;-66
2022/05/01 07:50:47;;;;;;;3.42;1.30;;;;;;;31.19;8.73;100075.31;5015622;28;20424;-66
2022/05/01 07:53:16;;;;;;;2.22;1.38;;;;;;;28.28;10.35;100077.91;5015459;28;20564;-68
2022/05/01 07:55:43;;;;;;;3.08;1.83;;;;;;;25.82;11.45;100086.38;5015371;28;20068;-67
2022/05/01 07:58:10;;;;;;;4.55;1.90;;;;;;;24.27;13.03;100080.81;5016191;28;20064;-67
2022/05/01 08:00:37;;;;;;;2.47;1.63;;;;;;;29.29;10.17;100080.63;5016270;28;20054;-66
2022/05/01 08:05:53;;;;;;;3.03;1.67;;;;;;;36.83;6.47;100069.16;5015427;28;20133;-66
2022/05/01 08:08:20;;;;;;;88.45;42.58;;;;;;;38.74;5.13;100062.28;5015314;28;20109;-66
2022/05/01 08:10:47;;;;;;;4.13;1.60;;;;;;;39.24;5.49;100061.47;5016211;28;20053;-67
2022/05/01 08:13:14;;;;;;;3.65;1.85;;;;;;;39.80;4.90;100057.66;5015237;28;20060;-67
2022/05/01 08:15:41;;;;;;;6.78;1.60;;;;;;;40.81;4.79;100059.72;5014988;28;20398;-67
2022/05/01 08:21:07;;;;;;;5.85;1.70;;;;;;;43.25;4.00;100049.75;5015340;28;20077;-67
2022/05/01 08:23:37;;;;;;;3.30;1.50;;;;;;;42.11;4.19;100056.47;5015218;28;20077;-67
2022/05/01 08:26:06;;;;;;;3.63;1.60;;;;;;;40.89;4.62;100040.34;5014756;28;20046;-67
2022/05/01 08:28:35;;;;;;;2.08;1.55;;;;;;;42.21;3.99;100031.44;5014956;28;20528;-67
2022/05/01 08:31:03;;;;;;;4.53;2.05;;;;;;;43.38;3.41;100040.28;5014849;28;20397;-66
2022/05/01 08:33:30;;;;;;;5.50;1.83;;;;;;;42.43;3.72;100031.38;5014211;28;20573;-66
2022/05/01 08:35:58;;;;;;;3.50;1.75;;;;;;;42.44;3.55;100032.19;5014664;28;20045;-67
2022/05/01 08:38:25;;;;;;;2.53;1.55;;;;;;;37.25;5.45;100029.03;5014653;28;20564;-66
2022/05/01 08:40:53;;;;;;;5.82;1.95;;;;;;;34.65;6.27;100022.47;5014413;28;20505;-66
2022/05/01 08:43:21;;;;;;;7.30;1.83;;;;;;;31.34;7.67;100014.03;5014655;28;20084;-66
2022/05/01 08:46:08;;;;;;;;;;;;;;;33.54;7.32;100017.59;5014999;28;20752;-66
2022/05/01 08:48:59;;;;;;;2.83;1.60;;;;;;;37.29;5.37;100011.44;5014051;28;19925;-67
2022/05/01 08:51:44;;;;;;;3.17;1.83;;;;;;;39.21;5.26;100004.28;5014616;28;20042;-67
2022/05/01 08:54:13;;;;;;;3.78;1.88;;;;;;;40.97;4.33;100010.09;5014170;28;20049;-67
2022/05/01 08:56:42;;;;;;;3.15;1.73;;;;;;;42.64;3.61;100006.22;5014011;28;20058;-67
2022/05/01 08:59:10;;;;;;;5.15;2.20;;;;;;;43.11;3.52;100004.84;5014138;28;20144;-65
2022/05/01 09:01:40;;;;;;;6.22;3.88;;;;;;;37.61;5.06;99998.69;5014330;28;20058;-66
2022/05/01 09:04:08;;;;;;;6.57;1.60;;;;;;;35.61;5.75;99995.44;5013827;28;20073;-67
2022/05/01 09:06:36;;;;;;;3.03;1.60;;;;;;;31.67;7.57;99986.56;5014587;28;20057;-66
2022/05/01 09:09:15;;;;;;;4.13;2.03;;;;;;;29.47;8.57;99988.41;5014090;28;20501;-67
2022/05/01 09:14:28;;;;;;;5.90;1.95;;;;;;;25.04;11.17;99980.81;5014079;28;20032;-66
2022/05/01 09:17:23;;;;;;;3.95;2.05;;;;;;;26.93;9.93;99989.19;5014017;28;20068;-66
2022/05/01 09:19:56;;;;;;;5.85;2.78;;;;;;;30.16;8.51;99977.06;5013477;28;20054;-67
2022/05/01 09:22:23;;;;;;;3.83;1.85;;;;;;;28.11;9.40;99987.50;5014167;28;20050;-66
2022/05/01 09:24:53;;;;;;;5.32;1.88;;;;;;;25.81;10.63;99970.72;5013665;28;20072;-67
2022/05/01 09:27:32;;;;;;;5.30;1.73;;;;;;;24.11;11.40;99980.97;5013872;28;20049;-66
2022/05/01 09:30:12;;;;;;;;;;;;;;;22.24;12.69;99974.50;5013914;28;20082;-67
2022/05/01 09:32:41;;;;;;;5.50;2.13;;;;;;;21.19;13.37;99979.56;5013751;28;20407;-66
2022/05/01 09:35:32;;;;;;;4.23;1.90;;;;;;;21.59;13.33;99973.78;5012220;28;20077;-67
2022/05/01 09:38:21;;;;;;;3.35;1.70;;;;;;;20.96;13.88;99971.31;5013208;28;20046;-66
2022/05/01 09:40:51;;;;;;;7.82;2.10;;;;;;;19.75;15.08;99961.88;5013714;28;20085;-66
2022/05/01 09:43:35;;;;;;;6.35;2.28;;;;;;;19.52;15.08;99975.28;5013635;28;20056;-66
2022/05/01 09:46:18;;;;;;;6.50;2.03;;;;;;;19.42;15.43;99967.47;5013415;28;20050;-67
2022/05/01 09:49:00;;;;;;;3.83;1.92;;;;;;;19.18;15.90;99969.88;5012069;28;20077;-67
2022/05/01 09:51:32;;;;;;;2.63;1.40;;;;;;;18.49;16.63;99971.16;5013506;28;20551;-68
2022/05/01 09:54:01;;;;;;;3.92;1.73;;;;;;;17.80;17.01;99960.91;5012991;28;20525;-70
2022/05/01 09:56:35;;;;;;;6.40;2.23;;;;;;;17.72;17.12;99955.50;5013437;28;20141;-73
2022/05/01 09:59:03;;;;;;;5.50;2.22;;;;;;;17.33;17.46;99962.25;5013154;28;20417;-72
2022/05/01 10:01:30;;;;;;;7.10;1.90;;;;;;;17.25;17.83;99943.56;5013236;28;20097;-72
2022/05/01 10:04:03;;;;;;;3.72;1.75;;;;;;;17.09;18.16;99946.44;5013343;28;20052;-72
2022/05/01 10:06:32;;;;;;;4.63;2.00;;;;;;;16.76;18.13;99937.63;5011744;28;20156;-72
2022/05/01 10:09:01;;;;;;;3.17;1.70;;;;;;;16.48;18.55;99942.50;5013170;28;20505;-72
2022/05/01 10:11:29;;;;;;;4.25;2.05;;;;;;;16.47;18.33;99952.13;5013126;28;20053;-73
2022/05/01 10:13:56;;;;;;;5.40;2.25;;;;;;;16.46;18.26;99946.84;5013126;28;20509;-72
2022/05/01 10:16:25;;;;;;;5.93;1.90;;;;;;;16.53;18.20;99930.19;5013079;28;20049;-73
2022/05/01 10:18:56;;;;;;;6.72;2.33;;;;;;;16.69;18.37;99936.63;5012695;28;20045;-73
2022/05/01 10:21:46;;;;;;;6.75;2.08;;;;;;;16.53;18.36;99938.59;5013263;28;20053;-73
2022/05/01 10:24:17;;;;;;;6.25;2.40;;;;;;;16.42;18.63;99919.47;5012899;28;20137;-72
2022/05/01 10:27:05;;;;;;;5.10;3.10;;;;;;;16.37;19.22;99930.97;5012751;28;20084;-73
2022/05/01 10:29:34;;;;;;;7.45;2.78;;;;;;;16.31;18.95;99929.59;5012687;28;20084;-73
2022/05/01 10:32:21;;;;;;;;;;;;;;;16.21;19.07;99932.13;5013086;28;20171;-72
2022/05/01 10:35:35;;;;;;;4.55;2.20;;;;;;;16.17;19.05;99915.19;5012866;28;19972;-73
2022/05/01 10:38:11;;;;;;;3.88;2.10;;;;;;;16.10;19.18;99917.81;5012170;28;20046;-72
2022/05/01 10:40:42;;;;;;;10.25;1.95;;;;;;;16.11;19.28;99915.81;5012906;28;20474;-71
2022/05/01 10:43:37;;;;;;;4.50;2.40;;;;;;;16.32;18.77;99908.75;5012676;28;20096;-71
2022/05/01 10:46:16;;;;;;;3.47;2.00;;;;;;;16.43;18.60;99914.66;5011199;28;20060;-72
2022/05/01 10:48:43;;;;;;;;;;;;;;;15.90;18.74;99890.78;5012827;28;20077;-72
2022/05/01 10:51:36;;;;;;;4.03;1.92;;;;;;;15.80;18.86;99899.75;5012908;28;20352;-73
2022/05/01 10:54:15;;;;;;;3.72;1.67;;;;;;;15.83;19.06;99886.97;5012347;28;20061;-71
2022/05/01 10:56:44;;;;;;;6.63;2.40;;;;;;;15.83;19.32;99884.19;5011478;28;20096;-72
2022/05/01 10:59:30;;;;;;;16.65;2.60;;;;;;;15.70;19.58;99886.25;5016269;28;20053;-72
2022/05/01 11:02:00;;;;;;;6.25;2.20;;;;;;;15.56;20.09;99888.66;5016690;28;20073;-72
2022/05/01 11:04:39;;;;;;;4.95;1.92;;;;;;;15.54;19.57;99885.38;5016860;28;20509;-71
2022/05/01 11:07:09;;;;;;;4.30;1.92;;;;;;;15.49;19.84;99877.25;5016758;28;20413;-72
2022/05/01 11:09:37;;;;;;;5.10;2.17;;;;;;;15.56;19.78;99880.22;5016325;28;20052;-72
2022/05/01 11:12:09;;;;;;;5.05;1.73;;;;;;;15.46;19.57;99866.75;5016048;28;20054;-71
2022/05/01 11:14:51;;;;;;;3.53;1.30;;;;;;;15.43;19.48;99856.25;5016345;28;20049;-72
2022/05/01 11:17:27;;;;;;;5.90;1.60;;;;;;;15.36;19.60;99855.97;5016330;28;20390;-73
2022/05/01 11:20:04;;;;;;;3.35;1.38;;;;;;;15.12;20.00;99860.84;5015905;28;20429;-72
2022/05/01 11:22:31;;;;;;;4.32;1.48;;;;;;;14.93;19.83;99853.09;5016186;28;20061;-72
2022/05/01 11:24:59;;;;;;;4.13;1.70;;;;;;;14.84;19.98;99858.03;5016181;28;20057;-72
2022/05/01 11:27:26;;;;;;;4.45;1.85;;;;;;;14.87;19.58;99848.09;5016533;28;20136;-73
2022/05/01 11:30:21;;;;;;;5.80;1.73;;;;;;;14.88;19.75;99850.53;5015224;28;20069;-72
2022/05/01 11:32:50;;;;;;;4.93;1.85;;;;;;;14.84;19.56;99857.19;5016596;28;20049;-73
2022/05/01 11:35:19;;;;;;;4.65;1.63;;;;;;;14.94;19.64;99853.91;5015810;28;20050;-66
2022/05/01 11:37:52;;;;;;;4.45;1.83;;;;;;;15.20;19.57;99846.72;5014387;28;20037;-66
2022/05/01 11:40:26;;;;;;;5.60;2.20;;;;;;;15.42;19.63;99839.78;5014533;28;20137;-74
2022/05/01 11:43:19;;;;;;;4.75;1.90;;;;;;;15.72;19.52;99841.00;5016195;28;20161;-72
2022/05/01 11:45:47;;;;;;;5.75;2.15;;;;;;;15.79;18.95;99842.03;5015552;28;20080;-74
2022/05/01 11:48:19;;;;;;;10.88;1.95;;;;;;;15.74;18.97;99844.25;5015796;28;20133;-73
2022/05/01 11:50:48;;;;;;;4.68;2.00;;;;;;;15.75;18.94;99841.09;5015430;28;20061;-72
2022/05/01 11:53:21;;;;;;;2.60;1.50;;;;;;;15.79;19.09;99830.81;5015476;28;20132;-72
2022/05/01 12:04:27;;;;;;;3.45;1.50;;;;;;;15.43;18.87;99822.59;5015706;28;20057;-72
2022/05/01 12:07:15;;;;;;;6.47;1.90;;;;;;;15.59;18.71;99809.41;5014292;28;20045;-72
2022/05/01 12:09:44;;;;;;;4.70;1.67;;;;;;;15.58;18.27;99813.41;5013961;28;20050;-72
2022/05/01 12:12:16;;;;;;;5.07;1.50;;;;;;;15.57;18.84;99811.75;5014169;28;20100;-71
2022/05/01 12:14:44;;;;;;;5.07;2.00;;;;;;;15.63;18.47;99804.69;5014960;28;20412;-72
2022/05/01 12:17:15;;;;;;;3.10;1.42;;;;;;;15.45;18.94;99813.81;5015259;28;20421;-71
2022/05/01 12:19:51;;;;;;;5.03;1.50;;;;;;;15.17;19.03;99808.19;5014730;28;20056;-72
2022/05/01 12:22:21;;;;;;;2.88;1.77;;;;;;;15.15;18.93;99804.09;5015079;28;20104;-72